Time;durP1;ratioP1;P1;durP2;ratioP2;P2;SDS_P1;SDS_P2;PMS_P1;PMS_P2;Temp;Humidity;BMP_temperature;BMP_pressure;BME280_temperature;BME280_humidity;BME280_pressure;Samples;Min_cycle;Max_cycle;Signal;HPM_P1;HPM_P2
2021/09/24 00:02:13;;;;;;;9.43;1.45;;;;;;;;;;5017647;28;20058;-66
2021/09/24 00:04:40;;;;;;;7.87;1.53;;;;;;;;;;5020882;28;20050;-67
2021/09/24 00:07:07;;;;;;;8.32;1.33;;;;;;;;;;5021973;28;20122;-67
2021/09/24 00:09:33;;;;;;;10.77;1.42;;;;;;;;;;5021766;28;20068;-66
2021/09/24 00:12:00;;;;;;;8.45;1.60;;;;;;;;;;5021736;28;20087;-66
2021/09/24 00:14:27;;;;;;;15.90;1.47;;;;;;;;;;5022231;28;20041;-66
2021/09/24 00:16:53;;;;;;;4.90;1.23;;;;;;;;;;5024053;28;20292;-66
2021/09/24 00:19:20;;;;;;;10.73;1.40;;;;;;;;;;5020764;28;20509;-66
2021/09/24 00:21:46;;;;;;;7.55;1.35;;;;;;;;;;5017566;28;20053;-66
2021/09/24 00:24:13;;;;;;;9.27;1.88;;;;;;;;;;5023437;28;20053;-66
2021/09/24 00:26:39;;;;;;;5.15;1.40;;;;;;;;;;5025158;28;20053;-66
2021/09/24 00:29:06;;;;;;;6.53;1.35;;;;;;;;;;5008705;28;20046;-66
2021/09/24 00:31:32;;;;;;;8.03;1.30;;;;;;;;;;5027069;28;20168;-66
2021/09/24 00:33:59;;;;;;;8.52;1.50;;;;;;;;;;5024793;28;20045;-66
2021/09/24 00:36:26;;;;;;;8.50;1.42;;;;;;;;;;5025348;28;20057;-66
2021/09/24 00:38:52;;;;;;;9.70;1.53;;;;;;;;;;5021970;28;20049;-66
2021/09/24 00:41:18;;;;;;;5.50;1.20;;;;;;;;;;5022767;28;20088;-66
2021/09/24 00:43:45;;;;;;;8.48;1.55;;;;;;;;;;5018680;28;20405;-66
2021/09/24 00:46:14;;;;;;;8.02;1.23;;;;;;;;;;5018522;28;20050;-66
2021/09/24 00:48:40;;;;;;;9.63;1.63;;;;;;;;;;5017005;28;20616;-66
2021/09/24 00:51:07;;;;;;;6.03;1.40;;;;;;;;;;5023938;28;20100;-66
2021/09/24 00:53:34;;;;;;;8.45;1.50;;;;;;;;;;5023326;28;20072;-66
2021/09/24 00:56:00;;;;;;;9.32;1.83;;;;;;;;;;5020920;28;20490;-66
2021/09/24 00:58:27;;;;;;;9.27;1.35;;;;;;;;;;5020435;28;20045;-66
2021/09/24 01:00:54;;;;;;;7.78;1.45;;;;;;;;;;5022822;28;20050;-66
2021/09/24 01:03:21;;;;;;;11.02;1.58;;;;;;;;;;5018923;28;20927;-66
2021/09/24 01:05:48;;;;;;;9.55;1.63;;;;;;;;;;5028864;28;20049;-66
2021/09/24 01:08:15;;;;;;;;;;;;;;;;;;5023570;28;20053;-66
2021/09/24 01:10:42;;;;;;;6.80;1.20;;;;;;;;;;5028160;28;20541;-66
2021/09/24 01:13:09;;;;;;;11.77;1.52;;;;;;;;;;5024502;28;20049;-66
2021/09/24 01:15:35;;;;;;;13.80;1.50;;;;;;;;;;5024213;28;20053;-66
2021/09/24 01:18:02;;;;;;;3.47;1.02;;;;;;;;;;5019495;28;20085;-66
2021/09/24 01:20:28;;;;;;;7.32;1.70;;;;;;;;;;5026723;28;20049;-65
2021/09/24 01:22:55;;;;;;;7.13;1.37;;;;;;;;;;5026722;28;20092;-65
2021/09/24 01:25:22;;;;;;;8.88;1.30;;;;;;;;;;5026156;28;20488;-65
2021/09/24 01:27:49;;;;;;;7.82;1.27;;;;;;;;;;5028056;28;20053;-65
2021/09/24 01:30:16;;;;;;;;;;;;;;;;;;5025013;28;20111;-66
2021/09/24 01:32:45;;;;;;;12.65;1.50;;;;;;;;;;5023457;28;19925;-65
2021/09/24 01:35:13;;;;;;;6.40;1.33;;;;;;;;;;5023938;28;20501;-65
2021/09/24 01:37:41;;;;;;;7.35;1.23;;;;;;;;;;5020925;28;20045;-65
2021/09/24 01:40:10;;;;;;;11.15;1.80;;;;;;;;;;5021626;28;20053;-66
2021/09/24 01:42:36;;;;;;;11.90;1.55;;;;;;;;;;5023262;28;20045;-66
2021/09/24 01:45:04;;;;;;;5.78;1.38;;;;;;;;;;5022485;28;20084;-65
2021/09/24 01:47:30;;;;;;;6.40;1.45;;;;;;;;;;5025898;28;20045;-65
2021/09/24 01:49:58;;;;;;;7.57;1.30;;;;;;;;;;5021633;28;20053;-66
2021/09/24 01:52:24;;;;;;;10.77;1.40;;;;;;;;;;5024249;28;20049;-66
2021/09/24 01:54:51;;;;;;;7.33;1.37;;;;;;;;;;5022142;28;20054;-65
2021/09/24 01:57:18;;;;;;;6.40;1.35;;;;;;;;;;5024612;28;20307;-65
2021/09/24 01:59:44;;;;;;;49.13;2.70;;;;;;;;;;5024112;28;20346;-66
2021/09/24 02:02:11;;;;;;;9.00;1.30;;;;;;;;;;5027619;28;20069;-66
2021/09/24 02:04:37;;;;;;;8.23;1.20;;;;;;;;;;5027861;28;20124;-66
2021/09/24 02:07:05;;;;;;;4.67;1.07;;;;;;;;;;5029175;28;20537;-66
2021/09/24 02:09:31;;;;;;;6.85;1.15;;;;;;;;;;5024185;28;20448;-66
2021/09/24 02:11:58;;;;;;;7.82;1.60;;;;;;;;;;5026491;28;20049;-65
2021/09/24 02:14:25;;;;;;;11.18;1.70;;;;;;;;;;5021406;28;20461;-65
2021/09/24 02:16:51;;;;;;;5.45;1.40;;;;;;;;;;5025394;28;20053;-65
2021/09/24 02:19:17;;;;;;;7.18;1.63;;;;;;;;;;5022403;28;20060;-66
2021/09/24 02:21:44;;;;;;;11.75;1.48;;;;;;;;;;5028547;28;20593;-66
2021/09/24 02:24:11;;;;;;;9.05;1.30;;;;;;;;;;5023378;28;20056;-66
2021/09/24 02:26:37;;;;;;;3.78;1.35;;;;;;;;;;5028582;28;20088;-66
2021/09/24 02:29:09;;;;;;;7.00;1.60;;;;;;;;;;5026165;28;20413;-66
2021/09/24 02:31:35;;;;;;;14.57;1.25;;;;;;;;;;5026090;28;20056;-66
2021/09/24 02:34:02;;;;;;;4.50;1.17;;;;;;;;;;5019073;28;20050;-66
2021/09/24 02:36:29;;;;;;;7.40;1.63;;;;;;;;;;5021660;28;20049;-66
2021/09/24 02:38:55;;;;;;;5.70;1.45;;;;;;;;;;5021436;28;20296;-66
2021/09/24 02:41:22;;;;;;;7.60;1.10;;;;;;;;;;5018982;28;20065;-66
2021/09/24 02:43:48;;;;;;;7.45;0.98;;;;;;;;;;5024151;28;20512;-66
2021/09/24 02:46:15;;;;;;;4.93;1.30;;;;;;;;;;5019524;28;20502;-65
2021/09/24 02:48:41;;;;;;;6.68;0.95;;;;;;;;;;5022647;28;20085;-65
2021/09/24 02:51:09;;;;;;;10.18;1.60;;;;;;;;;;5026888;28;20057;-65
2021/09/24 02:53:36;;;;;;;7.53;0.85;;;;;;;;;;5025521;28;20092;-65
2021/09/24 02:56:02;;;;;;;6.40;1.27;;;;;;;;;;5019381;28;20414;-65
2021/09/24 02:58:29;;;;;;;7.53;1.10;;;;;;;;;;5020762;28;20046;-65
2021/09/24 03:00:56;;;;;;;5.68;1.00;;;;;;;;;;5023133;28;20084;-66
2021/09/24 03:03:22;;;;;;;4.07;1.17;;;;;;;;;;5023899;28;20103;-65
2021/09/24 03:05:50;;;;;;;8.52;1.63;;;;;;;;;;5019667;28;20097;-65
2021/09/24 03:08:18;;;;;;;6.40;1.50;;;;;;;;;;5021337;28;20080;-65
2021/09/24 03:10:45;;;;;;;5.78;1.30;;;;;;;;;;5026545;28;20077;-65
2021/09/24 03:13:12;;;;;;;7.80;1.80;;;;;;;;;;5022074;28;20062;-65
2021/09/24 03:15:38;;;;;;;5.35;1.23;;;;;;;;;;5020716;28;20485;-65
2021/09/24 03:18:05;;;;;;;6.10;1.10;;;;;;;;;;5019302;28;20066;-65
2021/09/24 03:20:33;;;;;;;4.45;1.00;;;;;;;;;;5022353;28;20068;-65
2021/09/24 03:23:00;;;;;;;7.88;1.30;;;;;;;;;;5021424;28;20049;-65
2021/09/24 03:25:26;;;;;;;2.95;0.90;;;;;;;;;;5016250;28;20053;-65
2021/09/24 03:27:53;;;;;;;6.50;1.57;;;;;;;;;;5024941;28;20080;-65
2021/09/24 03:30:19;;;;;;;4.45;1.25;;;;;;;;;;5021533;28;20296;-65
2021/09/24 03:32:46;;;;;;;4.28;1.15;;;;;;;;;;5022123;28;20072;-65
2021/09/24 03:35:13;;;;;;;;;;;;;;;;;;5025504;28;20053;-65
2021/09/24 03:37:40;;;;;;;6.18;0.93;;;;;;;;;;5022263;28;19921;-65
2021/09/24 03:40:07;;;;;;;10.10;1.65;;;;;;;;;;5026650;28;20057;-65
2021/09/24 03:42:35;;;;;;;11.13;1.42;;;;;;;;;;5022009;28;20053;-65
2021/09/24 03:45:01;;;;;;;6.93;1.30;;;;;;;;;;5021867;28;20100;-65
2021/09/24 03:47:28;;;;;;;4.07;0.98;;;;;;;;;;5012659;28;20647;-65
2021/09/24 03:49:55;;;;;;;;;;;;;;;;;;5020701;28;20055;-66
2021/09/24 03:52:22;;;;;;;6.75;1.20;;;;;;;;;;5018187;28;20046;-65
2021/09/24 03:54:49;;;;;;;9.15;1.40;;;;;;;;;;5023246;28;20100;-65
2021/09/24 03:57:15;;;;;;;8.30;1.38;;;;;;;;;;5017312;28;20048;-66
2021/09/24 03:59:42;;;;;;;2.33;1.40;;;;;;;;;;5021608;28;20053;-65
2021/09/24 04:02:08;;;;;;;7.75;1.42;;;;;;;;;;5023210;28;20103;-65
2021/09/24 04:04:35;;;;;;;5.38;1.38;;;;;;;;;;5025432;28;20544;-66
2021/09/24 04:07:02;;;;;;;9.68;1.40;;;;;;;;;;5019306;28;20416;-65
2021/09/24 04:09:29;;;;;;;9.23;1.80;;;;;;;;;;5025204;28;20045;-65
2021/09/24 04:11:57;;;;;;;8.63;1.02;;;;;;;;;;5023561;28;20053;-65
2021/09/24 04:14:23;;;;;;;1.63;0.50;;;;;;;;;;5028468;28;20049;-65
2021/09/24 04:16:50;;;;;;;7.80;1.00;;;;;;;;;;5024524;28;20128;-65
2021/09/24 04:19:17;;;;;;;2.42;1.00;;;;;;;;;;5025370;28;20056;-66
2021/09/24 04:21:43;;;;;;;3.65;1.05;;;;;;;;;;5023499;28;20520;-66
2021/09/24 04:24:09;;;;;;;1.95;1.10;;;;;;;;;;5020756;28;20593;-65
2021/09/24 04:26:36;;;;;;;9.05;1.20;;;;;;;;;;5028738;28;20589;-65
2021/09/24 04:29:05;;;;;;;5.03;1.50;;;;;;;;;;5029698;28;20042;-65
2021/09/24 04:31:32;;;;;;;7.40;1.58;;;;;;;;;;5015710;28;20046;-65
2021/09/24 04:33:58;;;;;;;10.43;1.50;;;;;;;;;;5023433;28;20076;-65
2021/09/24 04:36:25;;;;;;;7.60;1.30;;;;;;;;;;5026921;28;20335;-65
2021/09/24 04:38:51;;;;;;;3.00;1.20;;;;;;;;;;5025930;28;20127;-65
2021/09/24 04:41:18;;;;;;;1.97;1.40;;;;;;;;;;5020868;28;20076;-65
2021/09/24 04:43:44;;;;;;;3.60;1.30;;;;;;;;;;5026087;28;20490;-65
2021/09/24 04:46:12;;;;;;;2.85;1.33;;;;;;;;;;5024495;28;20137;-65
2021/09/24 04:48:38;;;;;;;6.25;1.42;;;;;;;;;;5027972;28;20152;-65
2021/09/24 04:51:05;;;;;;;9.25;1.20;;;;;;;;;;5023282;28;20141;-65
2021/09/24 04:53:31;;;;;;;3.10;1.30;;;;;;;;;;5021555;28;20696;-65
2021/09/24 04:55:58;;;;;;;5.40;1.23;;;;;;;;;;5021058;28;20465;-65
2021/09/24 04:58:25;;;;;;;2.78;1.23;;;;;;;;;;5024982;28;20074;-65
2021/09/24 05:00:51;;;;;;;13.75;1.58;;;;;;;;;;5022293;28;20124;-65
2021/09/24 05:03:18;;;;;;;7.50;1.73;;;;;;;;;;5022240;28;20045;-65
2021/09/24 05:05:45;;;;;;;8.23;1.45;;;;;;;;;;5028627;28;20069;-65
2021/09/24 05:08:11;;;;;;;2.80;1.00;;;;;;;;;;5021660;28;20078;-65
2021/09/24 05:10:38;;;;;;;5.25;1.08;;;;;;;;;;5025195;28;20057;-65
2021/09/24 05:13:05;;;;;;;7.90;1.23;;;;;;;;;;5023704;28;20639;-65
2021/09/24 05:15:32;;;;;;;3.67;1.30;;;;;;;;;;5025410;28;20140;-65
2021/09/24 05:17:59;;;;;;;9.00;1.30;;;;;;;;;;5029489;28;20081;-65
2021/09/24 05:20:26;;;;;;;8.97;1.30;;;;;;;;;;5029933;28;20084;-66
2021/09/24 05:22:53;;;;;;;2.75;1.27;;;;;;;;;;5021416;28;20476;-65
2021/09/24 05:25:22;;;;;;;13.35;1.58;;;;;;;;;;5020734;28;20474;-65
2021/09/24 05:27:51;;;;;;;6.78;1.50;;;;;;;;;;5023197;28;20076;-65
2021/09/24 05:30:18;;;;;;;6.45;1.50;;;;;;;;;;5024368;28;20096;-65
2021/09/24 05:32:45;;;;;;;6.03;1.35;;;;;;;;;;5026484;28;20096;-65
2021/09/24 05:35:12;;;;;;;6.72;1.45;;;;;;;;;;5029281;28;20132;-65
2021/09/24 05:37:38;;;;;;;3.17;1.08;;;;;;;;;;5023691;28;20138;-66
2021/09/24 05:40:05;;;;;;;4.65;1.15;;;;;;;;;;5017043;28;20565;-65
2021/09/24 05:42:32;;;;;;;9.45;1.63;;;;;;;;;;5028269;28;20136;-65
2021/09/24 05:44:58;;;;;;;5.50;1.25;;;;;;;;;;5025223;28;20070;-66
2021/09/24 05:47:25;;;;;;;3.90;1.30;;;;;;;;;;5017608;28;20074;-65
2021/09/24 05:49:51;;;;;;;4.13;1.40;;;;;;;;;;5023289;28;20127;-65
2021/09/24 05:52:18;;;;;;;3.90;1.50;;;;;;;;;;5022452;28;20088;-65
2021/09/24 05:54:44;;;;;;;5.47;1.65;;;;;;;;;;5023859;28;20105;-65
2021/09/24 05:57:11;;;;;;;6.53;1.52;;;;;;;;;;5020519;28;20530;-65
2021/09/24 05:59:37;;;;;;;7.03;1.45;;;;;;;;;;5021003;28;20069;-65
2021/09/24 06:02:05;;;;;;;4.03;1.73;;;;;;;;;;5023097;28;20150;-65
2021/09/24 06:04:32;;;;;;;4.88;1.42;;;;;;;;;;5024537;28;20441;-66
2021/09/24 06:06:58;;;;;;;5.90;1.13;;;;;;;;;;5026611;28;20120;-65
2021/09/24 06:09:25;;;;;;;6.80;1.05;;;;;;;;;;5026701;28;20140;-65
2021/09/24 06:11:51;;;;;;;5.32;1.33;;;;;;;;;;5026938;28;20081;-65
2021/09/24 06:14:18;;;;;;;31.50;1.95;;;;;;;;;;5024116;28;20135;-65
2021/09/24 06:16:45;;;;;;;2.55;1.05;;;;;;;;;;5025400;28;20532;-65
2021/09/24 06:19:11;;;;;;;7.63;1.60;;;;;;;;;;5026011;28;20077;-65
2021/09/24 06:21:40;;;;;;;1.73;1.10;;;;;;;;;;5023556;28;20164;-65
2021/09/24 06:24:10;;;;;;;4.82;1.70;;;;;;;;;;5022743;28;20640;-65
2021/09/24 06:26:36;;;;;;;11.68;1.55;;;;;;;;;;5026049;28;20416;-66
2021/09/24 06:29:03;;;;;;;4.80;1.60;;;;;;;;;;5023442;28;20473;-65
2021/09/24 06:31:32;;;;;;;4.50;1.67;;;;;;;;;;5024679;28;20144;-65
2021/09/24 06:33:58;;;;;;;7.50;1.60;;;;;;;;;;5020453;28;20169;-65
2021/09/24 06:36:25;;;;;;;11.52;1.60;;;;;;;;;;5027208;28;20432;-65
2021/09/24 06:38:52;;;;;;;4.55;1.70;;;;;;;;;;5022813;28;20486;-65
2021/09/24 06:41:19;;;;;;;7.38;1.48;;;;;;;;;;5024006;28;20188;-65
2021/09/24 06:43:45;;;;;;;4.97;1.40;;;;;;;;;;5026289;28;20086;-65
2021/09/24 06:46:40;;;;;;;5.38;1.40;;;;;;;;;;5101334;27;20380;-65
2021/09/24 06:49:07;;;;;;;4.50;1.90;;;;;;;;;;5092961;28;20113;-65
2021/09/24 06:51:34;;;;;;;4.30;1.63;;;;;;;;;;5097648;28;20143;-65
2021/09/24 06:54:00;;;;;;;6.45;1.83;;;;;;;;;;5098283;28;20052;-65
2021/09/24 06:56:27;;;;;;;11.95;1.75;;;;;;;;;;5090122;28;20072;-65
2021/09/24 06:58:53;;;;;;;9.85;1.60;;;;;;;;;;5096544;28;20555;-65
2021/09/24 07:01:20;;;;;;;6.72;1.70;;;;;;;;;;5089381;28;20083;-67
2021/09/24 07:03:47;;;;;;;5.50;1.20;;;;;;;;;;5102354;28;20048;-65
2021/09/24 07:06:14;;;;;;;4.15;1.63;;;;;;;;;;5097854;28;20048;-65
2021/09/24 07:08:41;;;;;;;8.25;1.42;;;;;;;;;;5096530;28;20135;-65
2021/09/24 07:11:08;;;;;;;8.82;1.90;;;;;;;;;;5099075;28;20094;-65
2021/09/24 07:13:35;;;;;;;6.68;1.80;;;;;;;;;;5099961;28;20049;-65
2021/09/24 07:16:02;;;;;;;5.30;1.80;;;;;;;;;;5096796;28;20575;-65
2021/09/24 07:18:29;;;;;;;6.68;1.73;;;;;;;;;;5094111;28;20130;-65
2021/09/24 07:20:55;;;;;;;8.43;1.50;;;;;;;;;;5095934;28;20087;-67
2021/09/24 07:23:22;;;;;;;5.15;1.70;;;;;;;;;;5095686;28;20094;-67
2021/09/24 07:25:48;;;;;;;7.30;1.77;;;;;;;;;;5090587;28;20139;-67
2021/09/24 07:28:15;;;;;;;6.50;1.40;;;;;;;;;;5097404;28;20487;-67
2021/09/24 07:30:41;;;;;;;4.57;1.38;;;;;;;;;;5097214;28;20575;-67
2021/09/24 07:33:09;;;;;;;4.28;1.10;;;;;;;;;;5114240;27;20127;-67
2021/09/24 07:35:35;;;;;;;6.43;1.30;;;;;;;;;;5120088;27;20097;-67
2021/09/24 07:38:02;;;;;;;6.10;1.48;;;;;;;;;;5131726;27;20075;-67
2021/09/24 07:40:29;;;;;;;5.93;1.30;;;;;;;;;;5141110;27;20554;-67
2021/09/24 07:42:56;;;;;;;6.40;1.17;;;;;;;;;;5145511;27;20472;-67
2021/09/24 07:45:23;;;;;;;6.35;1.25;;;;;;;;;;5131947;27;20141;-67
2021/09/24 07:47:50;;;;;;;4.95;1.60;;;;;;;;;;5133511;27;20054;-67
2021/09/24 07:50:16;;;;;;;4.70;1.20;;;;;;;;;;5143416;27;20065;-67
2021/09/24 07:52:43;;;;;;;5.35;1.13;;;;;;;;;;5140889;27;20530;-67
2021/09/24 07:55:11;;;;;;;1.90;0.90;;;;;;;;;;5133834;27;20126;-67
2021/09/24 07:57:38;;;;;;;1.38;0.80;;;;;;;;;;5126350;27;20078;-67
2021/09/24 08:00:06;;;;;;;6.33;1.10;;;;;;;;;;5121297;27;20067;-67
2021/09/24 08:02:32;;;;;;;;;;;;;;;;;;5127117;27;20514;-67
2021/09/24 08:04:59;;;;;;;5.22;1.02;;;;;;;;;;5126049;27;19927;-67
2021/09/24 08:07:25;;;;;;;5.13;0.98;;;;;;;;;;5126965;27;20076;-67
2021/09/24 08:09:52;;;;;;;3.13;0.88;;;;;;;;;;5118706;27;20043;-67
2021/09/24 08:12:19;;;;;;;2.65;0.63;;;;;;;;;;5120796;27;20563;-67
2021/09/24 08:14:51;;;;;;;2.53;0.75;;;;;;;;;;5121287;27;20052;-67
2021/09/24 08:17:17;;;;;;;0.75;0.30;;;;;;;;;;5120956;27;20470;-64
2021/09/24 08:19:45;;;;;;;3.05;0.77;;;;;;;;;;5122255;27;20838;-64
2021/09/24 08:22:12;;;;;;;3.47;0.50;;;;;;;;;;5119589;27;20075;-64
2021/09/24 08:24:38;;;;;;;1.17;0.50;;;;;;;;;;5110765;27;20086;-64
2021/09/24 08:27:05;;;;;;;2.95;0.82;;;;;;;;;;5124439;27;20364;-64
2021/09/24 08:29:32;;;;;;;1.65;0.52;;;;;;;;;;5116704;27;20086;-64
2021/09/24 08:31:59;;;;;;;0.95;0.40;;;;;;;;;;5119838;27;20071;-64
2021/09/24 08:34:25;;;;;;;1.20;0.30;;;;;;;;;;5121753;27;20067;-64
2021/09/24 08:36:52;;;;;;;1.60;0.70;;;;;;;;;;5125338;27;20089;-64
2021/09/24 08:39:19;;;;;;;2.67;0.40;;;;;;;;;;5121090;27;20741;-64
2021/09/24 08:41:45;;;;;;;0.70;0.40;;;;;;;;;;5124234;27;20133;-64
2021/09/24 08:44:12;;;;;;;3.22;0.88;;;;;;;;;;5127920;27;20134;-64
2021/09/24 08:46:39;;;;;;;2.88;0.32;;;;;;;;;;5107078;27;20106;-64
2021/09/24 08:49:07;;;;;;;1.40;0.50;;;;;;;;;;5121699;27;20066;-64
2021/09/24 08:51:34;;;;;;;;;;;;;;;;;;5120641;27;20050;-64
2021/09/24 08:54:02;;;;;;;;;;;;;;;;;;5123249;27;20378;-64
2021/09/24 08:56:29;;;;;;;0.98;0.50;;;;;;;;;;5120926;27;19924;-64
2021/09/24 08:58:55;;;;;;;1.35;0.40;;;;;;;;;;5126266;27;20079;-64
2021/09/24 09:01:22;;;;;;;1.13;0.25;;;;;;;;;;5133808;27;20563;-63
2021/09/24 09:03:48;;;;;;;3.93;0.60;;;;;;;;;;5123532;27;20047;-64
2021/09/24 09:06:17;;;;;;;1.40;0.40;;;;;;;;;;5123570;27;20047;-64
2021/09/24 09:08:44;;;;;;;0.50;0.13;;;;;;;;;;5123091;27;20066;-64
2021/09/24 09:11:14;;;;;;;3.67;0.50;;;;;;;;;;5126504;27;20135;-64
2021/09/24 09:13:44;;;;;;;1.85;0.50;;;;;;;;;;5119611;27;20071;-64
2021/09/24 09:16:17;;;;;;;0.90;0.40;;;;;;;;;;5118894;27;20083;-63
2021/09/24 09:18:45;;;;;;;2.83;0.35;;;;;;;;;;5120571;27;20082;-63
2021/09/24 09:21:13;;;;;;;0.43;0.20;;;;;;;;;;5120672;27;20055;-63
2021/09/24 09:23:39;;;;;;;;;;;;;;;;;;5124991;27;20123;-63
2021/09/24 09:26:09;;;;;;;0.45;0.40;;;;;;;;;;5124707;27;19978;-63
2021/09/24 09:28:37;;;;;;;2.25;0.68;;;;;;;;;;5124288;27;20083;-63
2021/09/24 09:31:33;;;;;;;3.00;0.70;;;;;;;;;;5122423;27;20122;-63
2021/09/24 09:34:01;;;;;;;0.52;0.30;;;;;;;;;;5103905;27;20054;-63
2021/09/24 09:36:30;;;;;;;0.95;0.65;;;;;;;;;;5120556;27;20097;-63
2021/09/24 09:38:57;;;;;;;1.13;0.68;;;;;;;;;;5121495;27;20114;-63
2021/09/24 09:41:24;;;;;;;0.63;0.52;;;;;;;;;;5123340;27;20139;-64
2021/09/24 09:43:54;;;;;;;4.90;0.60;;;;;;;;;;5119649;27;20114;-63
2021/09/24 09:46:22;;;;;;;2.10;0.52;;;;;;;;;;5122380;27;20090;-63
2021/09/24 09:49:09;;;;;;;4.40;0.65;;;;;;;;;;5125523;27;20081;-63
2021/09/24 09:51:37;;;;;;;1.95;0.60;;;;;;;;;;5119616;27;20142;-63
2021/09/24 09:54:04;;;;;;;;;;;;;;;;;;5128162;27;20085;-63
2021/09/24 09:56:45;;;;;;;4.40;0.68;;;;;;;;;;5118971;27;20385;-63
2021/09/24 09:59:21;;;;;;;1.25;0.63;;;;;;;;;;5128142;27;20094;-63
2021/09/24 10:01:47;;;;;;;3.17;0.73;;;;;;;;;;5118687;27;20142;-63
2021/09/24 10:04:14;;;;;;;2.97;0.75;;;;;;;;;;5120868;27;20043;-63
2021/09/24 10:06:41;;;;;;;1.80;0.70;;;;;;;;;;5123009;27;20139;-63
2021/09/24 10:09:12;;;;;;;2.65;0.73;;;;;;;;;;5125229;27;20126;-63
2021/09/24 10:11:39;;;;;;;5.95;0.80;;;;;;;;;;5120339;27;20494;-63
2021/09/24 10:14:09;;;;;;;5.97;1.00;;;;;;;;;;5122291;27;20079;-63
2021/09/24 10:16:37;;;;;;;8.60;1.15;;;;;;;;;;5113578;27;20123;-63
2021/09/24 10:19:05;;;;;;;7.95;1.30;;;;;;;;;;5120403;27;20134;-63
2021/09/24 10:21:49;;;;;;;5.25;1.02;;;;;;;;;;5117882;27;20112;-63
2021/09/24 10:24:17;;;;;;;5.00;1.58;;;;;;;;;;5121710;27;20110;-63
2021/09/24 10:26:47;;;;;;;6.38;1.30;;;;;;;;;;5119475;27;20083;-63
2021/09/24 10:29:15;;;;;;;5.35;1.25;;;;;;;;;;5126138;27;20151;-63
2021/09/24 10:31:48;;;;;;;7.57;1.20;;;;;;;;;;5127004;27;20047;-63
2021/09/24 10:34:14;;;;;;;5.03;1.42;;;;;;;;;;5122026;27;20134;-63
2021/09/24 10:36:49;;;;;;;3.80;1.00;;;;;;;;;;5123143;27;20078;-63
2021/09/24 10:39:31;;;;;;;4.80;1.13;;;;;;;;;;5118214;27;20380;-63
2021/09/24 10:42:16;;;;;;;10.45;1.50;;;;;;;;;;5116033;27;20090;-63
2021/09/24 10:44:59;;;;;;;9.68;1.55;;;;;;;;;;5111791;28;20063;-62
2021/09/24 10:47:45;;;;;;;10.25;1.55;;;;;;;;;;5122504;28;20058;-63
2021/09/24 10:50:32;;;;;;;7.53;1.40;;;;;;;;;;5117436;27;20487;-63
2021/09/24 10:53:07;;;;;;;7.18;1.50;;;;;;;;;;5116912;28;20078;-63
2021/09/24 10:55:36;;;;;;;4.47;1.10;;;;;;;;;;5121770;28;20176;-63
2021/09/24 10:58:02;;;;;;;10.82;1.65;;;;;;;;;;5119593;28;20097;-63
2021/09/24 11:00:29;;;;;;;9.60;1.55;;;;;;;;;;5123616;27;20126;-63
2021/09/24 11:02:56;;;;;;;;;;;;;;;;;;5117867;28;20087;-63
2021/09/24 11:05:43;;;;;;;9.77;1.83;;;;;;;;;;5119194;27;19934;-63
2021/09/24 11:08:28;;;;;;;4.75;1.40;;;;;;;;;;5122736;27;20127;-62
2021/09/24 11:11:04;;;;;;;7.28;1.45;;;;;;;;;;5118189;27;20075;-63
2021/09/24 11:13:32;;;;;;;7.05;1.65;;;;;;;;;;5120640;27;20039;-63
2021/09/24 11:16:02;;;;;;;9.77;1.48;;;;;;;;;;5118291;27;20039;-63
2021/09/24 11:18:47;;;;;;;9.90;1.40;;;;;;;;;;5118907;27;20124;-63
2021/09/24 11:21:16;;;;;;;4.60;1.33;;;;;;;;;;5124432;27;20097;-63
2021/09/24 11:23:43;;;;;;;9.40;1.50;;;;;;;;;;5120902;27;20376;-63
2021/09/24 11:26:10;;;;;;;8.40;1.55;;;;;;;;;;5118437;27;20094;-63
2021/09/24 11:28:37;;;;;;;5.28;1.30;;;;;;;;;;5118646;27;20132;-63
2021/09/24 11:31:03;;;;;;;8.87;1.47;;;;;;;;;;5117198;27;20138;-63
2021/09/24 11:33:40;;;;;;;6.22;1.20;;;;;;;;;;5131446;27;20802;-63
2021/09/24 11:36:09;;;;;;;5.47;1.23;;;;;;;;;;5119347;27;20078;-63
2021/09/24 11:38:35;;;;;;;13.38;1.52;;;;;;;;;;5135019;27;20074;-63
2021/09/24 11:41:02;;;;;;;12.75;1.38;;;;;;;;;;5124342;27;20139;-63
2021/09/24 11:43:34;;;;;;;11.45;1.17;;;;;;;;;;5123202;27;20061;-63
2021/09/24 11:46:10;;;;;;;12.57;1.52;;;;;;;;;;5121637;27;20137;-63
2021/09/24 11:48:37;;;;;;;12.68;1.77;;;;;;;;;;5119603;27;20095;-63
2021/09/24 11:51:10;;;;;;;7.55;1.08;;;;;;;;;;5124372;27;20068;-63
2021/09/24 11:54:03;;;;;;;6.72;1.23;;;;;;;;;;5123870;27;20070;-63
2021/09/24 11:56:30;;;;;;;6.60;1.20;;;;;;;;;;5119460;27;20067;-63
2021/09/24 11:59:06;;;;;;;3.05;0.80;;;;;;;;;;5126829;27;20074;-63
2021/09/24 12:01:33;;;;;;;7.38;1.27;;;;;;;;;;5105228;27;20051;-63
2021/09/24 12:04:03;;;;;;;6.78;1.00;;;;;;;;;;5118507;27;20052;-63
2021/09/24 12:06:34;;;;;;;5.78;0.95;;;;;;;;;;5121261;27;20079;-63
2021/09/24 12:09:08;;;;;;;6.13;0.80;;;;;;;;;;5124778;27;20067;-63
2021/09/24 12:11:40;;;;;;;6.40;1.13;;;;;;;;;;5121825;27;20441;-63
2021/09/24 12:14:08;;;;;;;2.85;0.93;;;;;;;;;;5126447;27;20057;-63
2021/09/24 12:16:37;;;;;;;9.68;1.60;;;;;;;;;;5122001;27;20109;-63
2021/09/24 12:19:11;;;;;;;10.10;1.40;;;;;;;;;;5124007;27;20571;-63
2021/09/24 12:21:37;;;;;;;8.07;1.35;;;;;;;;;;5124599;27;20051;-63
2021/09/24 12:24:09;;;;;;;18.52;2.13;;;;;;;;;;5128329;27;20572;-63
2021/09/24 12:26:37;;;;;;;17.23;2.58;;;;;;;;;;5119752;27;20078;-63
2021/09/24 12:29:05;;;;;;;17.58;3.08;;;;;;;;;;5128464;27;20126;-63
2021/09/24 12:31:41;;;;;;;23.73;3.42;;;;;;;;;;5117947;27;20092;-63
2021/09/24 12:34:09;;;;;;;20.20;2.88;;;;;;;;;;5117616;27;20048;-63
2021/09/24 12:36:47;;;;;;;20.88;2.75;;;;;;;;;;5120909;27;20471;-63
2021/09/24 12:39:14;;;;;;;;;;;;;;;;;;5121040;27;20040;-63
2021/09/24 12:41:40;;;;;;;15.90;2.47;;;;;;;;;;5122307;27;20017;-63
2021/09/24 12:44:07;;;;;;;19.13;2.83;;;;;;;;;;5121490;27;20071;-63
2021/09/24 12:46:47;;;;;;;18.35;2.92;;;;;;;;;;5120013;27;20257;-63
2021/09/24 12:49:14;;;;;;;16.95;3.00;;;;;;;;;;5123286;27;20529;-63
2021/09/24 12:51:42;;;;;;;28.60;3.40;;;;;;;;;;5127455;27;20062;-63
2021/09/24 12:54:10;;;;;;;25.45;3.33;;;;;;;;;;5114071;27;20123;-63
2021/09/24 12:56:37;;;;;;;25.08;3.22;;;;;;;;;;5126410;27;20130;-63
2021/09/24 12:59:06;;;;;;;33.08;3.80;;;;;;;;;;5118807;27;20090;-63
2021/09/24 13:01:33;;;;;;;24.90;4.28;;;;;;;;;;5122236;27;20503;-63
2021/09/24 13:03:59;;;;;;;29.52;4.60;;;;;;;;;;5122231;27;20047;-63
2021/09/24 13:06:27;;;;;;;19.13;3.75;;;;;;;;;;5118138;27;20104;-63
2021/09/24 13:08:54;;;;;;;;;;;;;;;;;;5124412;27;20090;-63
2021/09/24 13:11:22;;;;;;;30.25;3.45;;;;;;;;;;5121583;27;19970;-64
2021/09/24 13:13:51;;;;;;;26.50;3.65;;;;;;;;;;5121498;27;20051;-63
2021/09/24 13:16:18;;;;;;;28.17;3.95;;;;;;;;;;5126825;27;20502;-63
2021/09/24 13:18:46;;;;;;;33.95;4.00;;;;;;;;;;5124935;27;20047;-63
2021/09/24 13:21:12;;;;;;;31.48;3.72;;;;;;;;;;5122817;27;20055;-63
2021/09/24 13:23:40;;;;;;;28.15;4.03;;;;;;;;;;5126690;27;20081;-63
2021/09/24 13:26:07;;;;;;;31.92;4.15;;;;;;;;;;5121730;27;20079;-63
2021/09/24 13:28:33;;;;;;;29.17;3.85;;;;;;;;;;5122529;27;20052;-64
2021/09/24 13:30:59;;;;;;;24.80;3.65;;;;;;;;;;5122065;27;20058;-63
2021/09/24 13:33:27;;;;;;;38.45;4.43;;;;;;;;;;5125018;27;20047;-63
2021/09/24 13:35:53;;;;;;;30.85;3.95;;;;;;;;;;5119589;27;20074;-63
2021/09/24 13:38:20;;;;;;;30.00;3.67;;;;;;;;;;5120989;27;20178;-63
2021/09/24 13:40:47;;;;;;;29.25;4.47;;;;;;;;;;5116353;27;20066;-63
2021/09/24 13:43:13;;;;;;;19.80;3.22;;;;;;;;;;5123161;27;20139;-64
2021/09/24 13:45:40;;;;;;;24.13;4.00;;;;;;;;;;5112937;27;20130;-64
2021/09/24 13:48:07;;;;;;;21.15;3.03;;;;;;;;;;5100044;28;20048;-63
2021/09/24 13:50:34;;;;;;;18.00;3.13;;;;;;;;;;5097385;28;20094;-63
2021/09/24 13:53:02;;;;;;;21.83;3.80;;;;;;;;;;5093173;28;20048;-64
2021/09/24 13:55:29;;;;;;;22.98;3.67;;;;;;;;;;5094710;28;20166;-64
2021/09/24 13:57:55;;;;;;;18.50;3.17;;;;;;;;;;5100138;28;20051;-64
2021/09/24 14:00:22;;;;;;;24.95;3.17;;;;;;;;;;5098604;28;20570;-64
2021/09/24 14:02:49;;;;;;;17.37;2.67;;;;;;;;;;5089571;28;20568;-64
2021/09/24 14:05:16;;;;;;;22.30;3.85;;;;;;;;;;5106751;28;20036;-64
2021/09/24 14:07:42;;;;;;;25.92;4.03;;;;;;;;;;5102274;28;20104;-64
2021/09/24 14:10:10;;;;;;;19.90;3.97;;;;;;;;;;5098039;28;20070;-64
2021/09/24 14:12:36;;;;;;;24.20;3.75;;;;;;;;;;5100078;28;20520;-64
2021/09/24 14:15:04;;;;;;;22.48;3.65;;;;;;;;;;5093916;28;20147;-64
2021/09/24 14:17:31;;;;;;;29.60;4.90;;;;;;;;;;5098138;28;20160;-64
2021/09/24 14:19:58;;;;;;;26.52;4.03;;;;;;;;;;5103051;28;20142;-65
2021/09/24 14:22:24;;;;;;;23.73;4.28;;;;;;;;;;5097793;27;20109;-64
2021/09/24 14:24:51;;;;;;;29.15;3.75;;;;;;;;;;5101844;28;20537;-64
2021/09/24 14:27:18;;;;;;;21.10;3.80;;;;;;;;;;5101212;28;20126;-64
2021/09/24 14:29:44;;;;;;;28.88;4.63;;;;;;;;;;5096970;28;20091;-64
2021/09/24 14:32:11;;;;;;;22.63;4.43;;;;;;;;;;5097336;28;20126;-64
2021/09/24 14:34:38;;;;;;;26.42;4.53;;;;;;;;;;5099820;28;20140;-64
2021/09/24 14:37:05;;;;;;;22.13;4.20;;;;;;;;;;5101156;28;20131;-64
2021/09/24 14:39:31;;;;;;;28.10;4.75;;;;;;;;;;5098128;28;20055;-64
2021/09/24 14:41:58;;;;;;;28.10;4.97;;;;;;;;;;5102980;28;20777;-63
2021/09/24 14:44:24;;;;;;;36.78;6.68;;;;;;;;;;5097450;28;20043;-64
2021/09/24 14:46:51;;;;;;;30.20;5.15;;;;;;;;;;5095598;28;20677;-64
2021/09/24 14:49:17;;;;;;;40.23;6.33;;;;;;;;;;5099054;28;20130;-64